sim
Sign-in with your pilot id or email,
or register
Callsign
Passwort

Schedule Details

Flight Number: OEO6048
Departure: Hannover Langenhagen Airport (EDDV) at 06:05
Arrival: Fuerteventura Airport (GCFV) at 11:15

Weather Information
Getting current METAR information for EDDV 192250Z 09008KT CAVOK 11/02 Q1032
Getting current METAR information for GCFV 192300Z AUTO 35015KT 9999 NCD 18/12 Q1018

Schedule Frequency

Route Map